sensor_id;sensor_type;location;lat;lon;timestamp;pressure;altitude;pressure_sealevel;temperature;humidity
58373;BME280;44177;43.356;27.672;2024-03-17T00:02:03;98606.88;;;1.65;100.00
58373;BME280;44177;43.356;27.672;2024-03-17T00:04:30;98612.50;;;1.68;100.00
58373;BME280;44177;43.356;27.672;2024-03-17T00:06:55;98597.00;;;1.55;100.00
58373;BME280;44177;43.356;27.672;2024-03-17T00:09:21;98610.38;;;1.70;100.00
58373;BME280;44177;43.356;27.672;2024-03-17T00:11:46;98591.59;;;1.60;100.00
58373;BME280;44177;43.356;27.672;2024-03-17T00:14:11;98607.13;;;1.73;100.00
58373;BME280;44177;43.356;27.672;2024-03-17T00:16:37;98604.19;;;1.65;100.00
58373;BME280;44177;43.356;27.672;2024-03-17T00:19:02;98582.47;;;1.51;100.00
58373;BME280;44177;43.356;27.672;2024-03-17T00:21:28;98533.47;;;1.19;100.00
58373;BME280;44177;43.356;27.672;2024-03-17T00:23:54;98546.31;;;1.28;100.00
58373;BME280;44177;43.356;27.672;2024-03-17T00:26:19;98603.16;;;1.61;100.00
58373;BME280;44177;43.356;27.672;2024-03-17T00:28:46;98605.06;;;1.55;100.00
58373;BME280;44177;43.356;27.672;2024-03-17T00:31:13;98604.81;;;1.51;100.00
58373;BME280;44177;43.356;27.672;2024-03-17T00:33:40;98602.13;;;1.51;100.00
58373;BME280;44177;43.356;27.672;2024-03-17T00:36:06;98583.38;;;1.36;100.00
58373;BME280;44177;43.356;27.672;2024-03-17T00:38:31;98597.88;;;1.45;100.00
58373;BME280;44177;43.356;27.672;2024-03-17T00:40:57;98578.78;;;1.36;100.00
58373;BME280;44177;43.356;27.672;2024-03-17T00:43:22;98584.72;;;1.38;100.00
58373;BME280;44177;43.356;27.672;2024-03-17T00:45:51;98588.47;;;1.37;100.00
58373;BME280;44177;43.356;27.672;2024-03-17T00:48:17;98586.84;;;1.36;100.00
58373;BME280;44177;43.356;27.672;2024-03-17T00:50:43;98568.38;;;1.30;100.00
58373;BME280;44177;43.356;27.672;2024-03-17T00:53:13;98588.72;;;1.41;100.00
58373;BME280;44177;43.356;27.672;2024-03-17T00:55:39;98571.00;;;1.35;100.00
58373;BME280;44177;43.356;27.672;2024-03-17T00:58:04;98577.44;;;1.39;100.00
58373;BME280;44177;43.356;27.672;2024-03-17T01:00:30;98561.91;;;1.25;100.00
58373;BME280;44177;43.356;27.672;2024-03-17T01:02:58;98560.34;;;1.19;100.00
58373;BME280;44177;43.356;27.672;2024-03-17T01:05:24;98564.34;;;1.22;100.00
58373;BME280;44177;43.356;27.672;2024-03-17T01:07:49;98576.97;;;1.26;100.00
58373;BME280;44177;43.356;27.672;2024-03-17T01:10:15;98567.84;;;1.22;100.00
58373;BME280;44177;43.356;27.672;2024-03-17T01:12:40;98572.38;;;1.27;100.00
58373;BME280;44177;43.356;27.672;2024-03-17T01:15:06;98578.88;;;1.21;100.00
58373;BME280;44177;43.356;27.672;2024-03-17T01:17:32;98568.69;;;1.18;100.00
58373;BME280;44177;43.356;27.672;2024-03-17T01:19:58;98567.88;;;1.17;100.00
58373;BME280;44177;43.356;27.672;2024-03-17T01:22:24;98520.94;;;0.94;100.00
58373;BME280;44177;43.356;27.672;2024-03-17T01:24:49;98565.41;;;1.26;100.00
58373;BME280;44177;43.356;27.672;2024-03-17T01:27:15;98568.88;;;1.32;100.00
58373;BME280;44177;43.356;27.672;2024-03-17T01:29:42;98561.31;;;1.39;100.00
58373;BME280;44177;43.356;27.672;2024-03-17T01:32:08;98567.72;;;1.48;100.00
58373;BME280;44177;43.356;27.672;2024-03-17T01:34:34;98568.78;;;1.52;100.00
58373;BME280;44177;43.356;27.672;2024-03-17T01:36:59;98562.91;;;1.45;100.00
58373;BME280;44177;43.356;27.672;2024-03-17T01:39:25;98563.75;;;1.35;100.00
58373;BME280;44177;43.356;27.672;2024-03-17T01:41:50;98562.94;;;1.35;100.00
58373;BME280;44177;43.356;27.672;2024-03-17T01:44:27;98540.44;;;1.20;100.00
58373;BME280;44177;43.356;27.672;2024-03-17T01:46:54;98561.63;;;1.27;100.00
58373;BME280;44177;43.356;27.672;2024-03-17T01:49:21;98569.94;;;1.31;100.00
58373;BME280;44177;43.356;27.672;2024-03-17T01:51:48;98525.50;;;0.93;100.00
58373;BME280;44177;43.356;27.672;2024-03-17T01:54:14;98570.53;;;1.22;100.00
58373;BME280;44177;43.356;27.672;2024-03-17T01:56:41;98552.81;;;1.21;100.00
58373;BME280;44177;43.356;27.672;2024-03-17T01:59:08;98565.94;;;1.33;100.00
58373;BME280;44177;43.356;27.672;2024-03-17T02:01:35;98551.19;;;1.20;100.00
58373;BME280;44177;43.356;27.672;2024-03-17T02:04:00;98572.13;;;1.23;100.00
58373;BME280;44177;43.356;27.672;2024-03-17T02:06:26;98571.63;;;1.16;100.00
58373;BME280;44177;43.356;27.672;2024-03-17T02:08:54;98573.81;;;1.14;100.00
58373;BME280;44177;43.356;27.672;2024-03-17T02:11:32;98565.22;;;1.12;100.00
58373;BME280;44177;43.356;27.672;2024-03-17T02:13:59;98575.19;;;1.01;100.00
58373;BME280;44177;43.356;27.672;2024-03-17T02:16:26;98543.53;;;0.83;100.00
58373;BME280;44177;43.356;27.672;2024-03-17T02:18:55;98566.88;;;0.98;100.00
58373;BME280;44177;43.356;27.672;2024-03-17T02:21:21;98551.31;;;0.89;100.00
58373;BME280;44177;43.356;27.672;2024-03-17T02:23:52;98560.97;;;0.96;100.00
58373;BME280;44177;43.356;27.672;2024-03-17T02:26:18;98556.13;;;0.92;100.00
58373;BME280;44177;43.356;27.672;2024-03-17T02:28:45;98558.81;;;0.92;100.00
58373;BME280;44177;43.356;27.672;2024-03-17T02:31:12;98554.25;;;0.93;100.00
58373;BME280;44177;43.356;27.672;2024-03-17T02:33:38;98560.97;;;0.96;100.00
58373;BME280;44177;43.356;27.672;2024-03-17T02:36:07;98554.25;;;0.93;100.00
58373;BME280;44177;43.356;27.672;2024-03-17T02:38:34;98548.31;;;0.96;100.00
58373;BME280;44177;43.356;27.672;2024-03-17T02:41:19;98556.66;;;0.94;100.00
58373;BME280;44177;43.356;27.672;2024-03-17T02:43:45;98549.97;;;0.92;100.00
58373;BME280;44177;43.356;27.672;2024-03-17T02:46:15;98554.56;;;0.81;100.00
58373;BME280;44177;43.356;27.672;2024-03-17T02:48:42;98554.31;;;0.77;100.00
58373;BME280;44177;43.356;27.672;2024-03-17T02:51:16;98546.00;;;0.74;100.00
58373;BME280;44177;43.356;27.672;2024-03-17T02:53:47;98545.47;;;0.72;100.00
58373;BME280;44177;43.356;27.672;2024-03-17T02:56:13;98540.09;;;0.61;100.00
58373;BME280;44177;43.356;27.672;2024-03-17T02:58:42;98549.22;;;0.71;100.00
58373;BME280;44177;43.356;27.672;2024-03-17T03:01:08;98522.44;;;0.50;100.00
58373;BME280;44177;43.356;27.672;2024-03-17T03:03:35;98547.09;;;0.62;100.00
58373;BME280;44177;43.356;27.672;2024-03-17T03:06:01;98538.50;;;0.66;100.00
58373;BME280;44177;43.356;27.672;2024-03-17T03:08:32;98539.78;;;0.84;100.00
58373;BME280;44177;43.356;27.672;2024-03-17T03:10:57;98542.78;;;0.67;100.00
58373;BME280;44177;43.356;27.672;2024-03-17T03:13:23;98529.66;;;0.55;100.00
58373;BME280;44177;43.356;27.672;2024-03-17T03:15:48;98540.38;;;0.65;100.00
58373;BME280;44177;43.356;27.672;2024-03-17T03:18:14;98528.56;;;0.61;100.00
58373;BME280;44177;43.356;27.672;2024-03-17T03:20:40;98539.25;;;0.71;100.00
58373;BME280;44177;43.356;27.672;2024-03-17T03:23:06;98550.28;;;0.75;100.00
58373;BME280;44177;43.356;27.672;2024-03-17T03:25:32;98548.69;;;0.74;100.00
58373;BME280;44177;43.356;27.672;2024-03-17T03:27:57;98542.53;;;0.58;100.00
58373;BME280;44177;43.356;27.672;2024-03-17T03:30:23;98552.75;;;0.61;100.00
58373;BME280;44177;43.356;27.672;2024-03-17T03:32:49;98549.78;;;0.57;100.00
58373;BME280;44177;43.356;27.672;2024-03-17T03:35:14;98551.41;;;0.53;100.00
58373;BME280;44177;43.356;27.672;2024-03-17T03:37:40;98555.16;;;0.52;100.00
58373;BME280;44177;43.356;27.672;2024-03-17T03:40:07;98554.09;;;0.53;100.00
58373;BME280;44177;43.356;27.672;2024-03-17T03:42:43;98549.81;;;0.37;100.00
58373;BME280;44177;43.356;27.672;2024-03-17T03:45:09;98537.47;;;0.30;100.00
58373;BME280;44177;43.356;27.672;2024-03-17T03:47:38;98544.19;;;0.33;100.00
58373;BME280;44177;43.356;27.672;2024-03-17T03:50:08;98563.78;;;0.28;100.00
58373;BME280;44177;43.356;27.672;2024-03-17T03:52:37;98567.53;;;0.38;100.00
58373;BME280;44177;43.356;27.672;2024-03-17T03:55:07;98561.63;;;0.46;100.00
58373;BME280;44177;43.356;27.672;2024-03-17T03:57:36;98550.88;;;0.51;100.00
58373;BME280;44177;43.356;27.672;2024-03-17T04:00:03;98550.88;;;0.56;100.00
58373;BME280;44177;43.356;27.672;2024-03-17T04:02:44;98565.63;;;0.69;100.00
58373;BME280;44177;43.356;27.672;2024-03-17T04:05:10;98557.81;;;0.62;100.00
58373;BME280;44177;43.356;27.672;2024-03-17T04:07:39;98551.66;;;0.57;100.00
58373;BME280;44177;43.356;27.672;2024-03-17T04:10:05;98569.66;;;0.67;100.00
58373;BME280;44177;43.356;27.672;2024-03-17T04:12:31;98567.78;;;0.62;100.00
58373;BME280;44177;43.356;27.672;2024-03-17T04:14:59;98574.75;;;0.63;100.00
58373;BME280;44177;43.356;27.672;2024-03-17T04:17:25;98567.22;;;0.65;100.00
58373;BME280;44177;43.356;27.672;2024-03-17T04:19:52;98575.50;;;0.84;100.00
58373;BME280;44177;43.356;27.672;2024-03-17T04:22:18;98574.13;;;0.92;100.00
58373;BME280;44177;43.356;27.672;2024-03-17T04:24:48;98568.50;;;0.88;100.00
58373;BME280;44177;43.356;27.672;2024-03-17T04:27:21;98573.59;;;0.90;100.00
58373;BME280;44177;43.356;27.672;2024-03-17T04:29:47;98579.00;;;0.85;100.00
58373;BME280;44177;43.356;27.672;2024-03-17T04:32:15;98581.44;;;0.71;100.00
58373;BME280;44177;43.356;27.672;2024-03-17T04:34:41;98583.56;;;0.79;100.00
58373;BME280;44177;43.356;27.672;2024-03-17T04:37:09;98590.00;;;0.88;100.00
58373;BME280;44177;43.356;27.672;2024-03-17T04:39:36;98590.53;;;0.85;100.00
58373;BME280;44177;43.356;27.672;2024-03-17T04:42:03;98595.91;;;0.90;100.00
58373;BME280;44177;43.356;27.672;2024-03-17T04:44:29;98585.72;;;0.82;100.00
58373;BME280;44177;43.356;27.672;2024-03-17T04:46:54;98575.78;;;0.77;100.00
58373;BME280;44177;43.356;27.672;2024-03-17T04:49:20;98600.72;;;0.99;100.00
58373;BME280;44177;43.356;27.672;2024-03-17T04:51:45;98597.44;;;1.07;100.00
58373;BME280;44177;43.356;27.672;2024-03-17T04:54:11;98581.34;;;1.02;100.00
58373;BME280;44177;43.356;27.672;2024-03-17T04:56:37;98580.75;;;1.15;100.00
58373;BME280;44177;43.356;27.672;2024-03-17T04:59:02;98591.19;;;1.32;100.00
58373;BME280;44177;43.356;27.672;2024-03-17T05:01:27;98591.94;;;1.43;100.00
58373;BME280;44177;43.356;27.672;2024-03-17T05:03:56;98583.84;;;1.48;100.00
58373;BME280;44177;43.356;27.672;2024-03-17T05:06:21;98592.66;;;1.59;100.00
58373;BME280;44177;43.356;27.672;2024-03-17T05:08:47;98560.47;;;1.44;100.00
58373;BME280;44177;43.356;27.672;2024-03-17T05:11:12;98588.00;;;1.75;100.00
58373;BME280;44177;43.356;27.672;2024-03-17T05:13:39;98576.44;;;1.74;100.00
58373;BME280;44177;43.356;27.672;2024-03-17T05:16:05;98592.16;;;1.97;100.00
58373;BME280;44177;43.356;27.672;2024-03-17T05:18:31;98582.72;;;1.99;100.00
58373;BME280;44177;43.356;27.672;2024-03-17T05:23:31;98589.47;;;2.31;100.00
58373;BME280;44177;43.356;27.672;2024-03-17T05:25:57;98590.72;;;2.44;100.00
58373;BME280;44177;43.356;27.672;2024-03-17T05:28:24;98596.91;;;2.74;100.00
58373;BME280;44177;43.356;27.672;2024-03-17T05:30:50;98596.66;;;3.00;100.00
58373;BME280;44177;43.356;27.672;2024-03-17T05:33:18;98596.53;;;3.54;100.00
58373;BME280;44177;43.356;27.672;2024-03-17T05:35:52;98596.84;;;4.09;100.00
58373;BME280;44177;43.356;27.672;2024-03-17T05:38:22;98598.19;;;4.59;100.00
58373;BME280;44177;43.356;27.672;2024-03-17T05:40:54;98593.44;;;5.12;100.00
58373;BME280;44177;43.356;27.672;2024-03-17T05:43:21;98594.94;;;5.46;100.00
58373;BME280;44177;43.356;27.672;2024-03-17T05:45:47;98602.38;;;5.91;100.00
58373;BME280;44177;43.356;27.672;2024-03-17T05:48:12;98601.00;;;6.39;100.00
58373;BME280;44177;43.356;27.672;2024-03-17T05:50:38;98604.56;;;6.71;98.07
58373;BME280;44177;43.356;27.672;2024-03-17T05:53:04;98593.25;;;7.09;96.69
58373;BME280;44177;43.356;27.672;2024-03-17T05:55:30;98599.25;;;7.46;94.98
58373;BME280;44177;43.356;27.672;2024-03-17T05:57:56;98606.50;;;7.68;93.19
58373;BME280;44177;43.356;27.672;2024-03-17T06:00:22;98608.28;;;7.90;91.62
58373;BME280;44177;43.356;27.672;2024-03-17T06:02:47;98601.72;;;8.18;91.04
58373;BME280;44177;43.356;27.672;2024-03-17T06:05:13;98597.72;;;8.50;91.04
58373;BME280;44177;43.356;27.672;2024-03-17T06:07:40;98592.88;;;8.74;90.29
58373;BME280;44177;43.356;27.672;2024-03-17T06:10:06;98599.34;;;8.99;89.50
58373;BME280;44177;43.356;27.672;2024-03-17T06:12:32;98599.09;;;9.22;89.04
58373;BME280;44177;43.356;27.672;2024-03-17T06:14:57;98589.34;;;9.51;87.14
58373;BME280;44177;43.356;27.672;2024-03-17T06:17:23;98601.25;;;9.37;87.24
58373;BME280;44177;43.356;27.672;2024-03-17T06:19:48;98599.09;;;9.82;86.75
58373;BME280;44177;43.356;27.672;2024-03-17T06:22:14;98594.56;;;10.07;85.73
58373;BME280;44177;43.356;27.672;2024-03-17T06:24:39;98594.53;;;10.28;86.41
58373;BME280;44177;43.356;27.672;2024-03-17T06:27:05;98602.22;;;10.68;83.55
58373;BME280;44177;43.356;27.672;2024-03-17T06:29:32;98597.88;;;10.67;81.76
58373;BME280;44177;43.356;27.672;2024-03-17T06:31:58;98611.47;;;11.13;79.01
58373;BME280;44177;43.356;27.672;2024-03-17T06:34:23;98615.94;;;11.30;75.33
58373;BME280;44177;43.356;27.672;2024-03-17T06:36:49;98617.19;;;11.45;73.24
58373;BME280;44177;43.356;27.672;2024-03-17T06:39:14;98608.41;;;10.90;71.84
58373;BME280;44177;43.356;27.672;2024-03-17T06:41:44;98621.41;;;11.30;72.22
58373;BME280;44177;43.356;27.672;2024-03-17T06:44:09;98620.50;;;11.63;68.82
58373;BME280;44177;43.356;27.672;2024-03-17T06:46:35;98622.50;;;11.91;68.82
58373;BME280;44177;43.356;27.672;2024-03-17T06:49:00;98611.84;;;12.27;66.36
58373;BME280;44177;43.356;27.672;2024-03-17T06:51:26;98614.50;;;12.68;65.45
58373;BME280;44177;43.356;27.672;2024-03-17T06:53:51;98609.59;;;12.89;62.95
58373;BME280;44177;43.356;27.672;2024-03-17T06:56:16;98611.03;;;13.47;61.05
58373;BME280;44177;43.356;27.672;2024-03-17T06:58:42;98590.38;;;13.69;60.34
58373;BME280;44177;43.356;27.672;2024-03-17T07:01:08;98575.16;;;13.72;59.83
58373;BME280;44177;43.356;27.672;2024-03-17T07:03:34;98608.75;;;13.85;59.76
58373;BME280;44177;43.356;27.672;2024-03-17T07:06:00;98609.19;;;14.06;57.87
58373;BME280;44177;43.356;27.672;2024-03-17T07:08:31;98606.81;;;14.44;57.08
58373;BME280;44177;43.356;27.672;2024-03-17T07:11:06;98606.19;;;14.94;56.96
58373;BME280;44177;43.356;27.672;2024-03-17T07:13:36;98596.88;;;14.98;53.91
58373;BME280;44177;43.356;27.672;2024-03-17T07:16:06;98599.78;;;15.09;54.83
58373;BME280;44177;43.356;27.672;2024-03-17T07:18:32;98598.69;;;15.14;56.04
58373;BME280;44177;43.356;27.672;2024-03-17T07:21:06;98589.47;;;15.26;54.81
58373;BME280;44177;43.356;27.672;2024-03-17T07:23:36;98602.78;;;15.24;53.99
58373;BME280;44177;43.356;27.672;2024-03-17T07:26:02;98598.31;;;15.39;54.87
58373;BME280;44177;43.356;27.672;2024-03-17T07:28:30;98595.97;;;15.41;54.89
58373;BME280;44177;43.356;27.672;2024-03-17T07:30:59;98601.06;;;15.15;55.27
58373;BME280;44177;43.356;27.672;2024-03-17T07:33:26;98604.16;;;14.91;55.83
58373;BME280;44177;43.356;27.672;2024-03-17T07:35:52;98609.56;;;15.07;56.53
58373;BME280;44177;43.356;27.672;2024-03-17T07:38:18;98598.66;;;15.64;53.04
58373;BME280;44177;43.356;27.672;2024-03-17T07:40:45;98599.59;;;15.75;52.45
58373;BME280;44177;43.356;27.672;2024-03-17T07:43:20;98593.13;;;15.10;54.27
58373;BME280;44177;43.356;27.672;2024-03-17T07:45:45;98604.16;;;15.91;53.88
58373;BME280;44177;43.356;27.672;2024-03-17T07:48:11;98592.88;;;16.30;51.52
58373;BME280;44177;43.356;27.672;2024-03-17T07:50:36;98593.78;;;16.76;48.87
58373;BME280;44177;43.356;27.672;2024-03-17T07:53:02;98600.34;;;17.05;49.53
58373;BME280;44177;43.356;27.672;2024-03-17T07:55:28;98592.47;;;17.03;48.54
58373;BME280;44177;43.356;27.672;2024-03-17T07:57:55;98590.41;;;17.42;48.07
58373;BME280;44177;43.356;27.672;2024-03-17T08:00:21;98587.47;;;17.72;47.96
58373;BME280;44177;43.356;27.672;2024-03-17T08:02:47;98585.41;;;17.06;47.87
58373;BME280;44177;43.356;27.672;2024-03-17T08:05:13;98581.69;;;16.50;48.27
58373;BME280;44177;43.356;27.672;2024-03-17T08:07:39;98588.47;;;16.60;49.08
58373;BME280;44177;43.356;27.672;2024-03-17T08:10:05;98588.47;;;16.97;49.01
58373;BME280;44177;43.356;27.672;2024-03-17T08:12:30;98592.84;;;16.64;49.07
58373;BME280;44177;43.356;27.672;2024-03-17T08:14:56;98585.81;;;16.70;50.05
58373;BME280;44177;43.356;27.672;2024-03-17T08:17:21;98573.72;;;17.20;49.50
58373;BME280;44177;43.356;27.672;2024-03-17T08:19:47;98579.19;;;17.16;48.77
58373;BME280;44177;43.356;27.672;2024-03-17T08:22:13;98588.59;;;17.12;49.18
58373;BME280;44177;43.356;27.672;2024-03-17T08:24:40;98587.72;;;17.00;47.04
58373;BME280;44177;43.356;27.672;2024-03-17T08:27:05;98578.19;;;17.43;47.53
58373;BME280;44177;43.356;27.672;2024-03-17T08:29:31;98558.94;;;17.50;48.38
58373;BME280;44177;43.356;27.672;2024-03-17T08:31:58;98578.41;;;17.72;46.44
58373;BME280;44177;43.356;27.672;2024-03-17T08:34:24;98580.50;;;17.96;45.03
58373;BME280;44177;43.356;27.672;2024-03-17T08:36:50;98564.91;;;18.37;44.83
58373;BME280;44177;43.356;27.672;2024-03-17T08:39:16;98518.97;;;17.89;43.70
58373;BME280;44177;43.356;27.672;2024-03-17T08:41:41;98549.75;;;17.94;44.68
58373;BME280;44177;43.356;27.672;2024-03-17T08:44:09;98562.94;;;18.34;44.81
58373;BME280;44177;43.356;27.672;2024-03-17T08:46:35;98561.97;;;17.30;43.97
58373;BME280;44177;43.356;27.672;2024-03-17T08:49:00;98575.03;;;16.92;46.63
58373;BME280;44177;43.356;27.672;2024-03-17T08:51:26;98559.25;;;16.89;46.77
58373;BME280;44177;43.356;27.672;2024-03-17T08:53:53;98565.81;;;17.15;45.45
58373;BME280;44177;43.356;27.672;2024-03-17T08:56:19;98567.28;;;17.05;48.17
58373;BME280;44177;43.356;27.672;2024-03-17T08:58:46;98559.84;;;17.68;45.21
58373;BME280;44177;43.356;27.672;2024-03-17T09:01:13;98550.09;;;17.89;43.23
58373;BME280;44177;43.356;27.672;2024-03-17T09:03:39;98555.88;;;17.59;45.83
58373;BME280;44177;43.356;27.672;2024-03-17T09:06:14;98506.41;;;17.28;44.48
58373;BME280;44177;43.356;27.672;2024-03-17T09:08:41;98549.66;;;17.80;46.18
58373;BME280;44177;43.356;27.672;2024-03-17T09:11:11;98541.59;;;17.46;45.08
58373;BME280;44177;43.356;27.672;2024-03-17T09:13:37;98550.03;;;17.75;45.40
58373;BME280;44177;43.356;27.672;2024-03-17T09:16:03;98547.31;;;17.86;44.25
58373;BME280;44177;43.356;27.672;2024-03-17T09:18:29;98550.59;;;18.09;45.51
58373;BME280;44177;43.356;27.672;2024-03-17T09:23:29;98544.13;;;17.80;45.54
58373;BME280;44177;43.356;27.672;2024-03-17T09:25:59;98548.00;;;17.09;45.82
58373;BME280;44177;43.356;27.672;2024-03-17T09:28:26;98541.63;;;17.53;46.45
58373;BME280;44177;43.356;27.672;2024-03-17T09:30:52;98531.69;;;18.15;44.79
58373;BME280;44177;43.356;27.672;2024-03-17T09:33:25;98529.44;;;18.53;44.02
58373;BME280;44177;43.356;27.672;2024-03-17T09:35:55;98543.31;;;19.07;42.39
58373;BME280;44177;43.356;27.672;2024-03-17T09:38:21;98522.78;;;18.98;41.44
58373;BME280;44177;43.356;27.672;2024-03-17T09:40:47;98535.81;;;19.33;41.43
58373;BME280;44177;43.356;27.672;2024-03-17T09:43:15;98517.72;;;20.25;40.57
58373;BME280;44177;43.356;27.672;2024-03-17T09:45:40;98520.66;;;19.78;40.27
58373;BME280;44177;43.356;27.672;2024-03-17T09:48:06;98508.88;;;19.48;40.48
58373;BME280;44177;43.356;27.672;2024-03-17T09:50:33;98501.44;;;18.87;43.15
58373;BME280;44177;43.356;27.672;2024-03-17T09:52:59;98516.00;;;19.49;41.59
58373;BME280;44177;43.356;27.672;2024-03-17T09:55:26;98506.16;;;18.90;41.36
58373;BME280;44177;43.356;27.672;2024-03-17T09:57:52;98509.72;;;18.80;43.60
58373;BME280;44177;43.356;27.672;2024-03-17T10:00:17;98514.84;;;19.14;41.45
58373;BME280;44177;43.356;27.672;2024-03-17T10:02:47;98495.84;;;19.38;41.35
58373;BME280;44177;43.356;27.672;2024-03-17T10:05:21;98506.44;;;19.72;39.43
58373;BME280;44177;43.356;27.672;2024-03-17T10:07:46;98513.44;;;20.09;39.30
58373;BME280;44177;43.356;27.672;2024-03-17T10:10:13;98507.97;;;19.91;38.81
58373;BME280;44177;43.356;27.672;2024-03-17T10:12:39;98503.97;;;20.03;38.08
58373;BME280;44177;43.356;27.672;2024-03-17T10:15:05;98498.91;;;20.58;38.87
58373;BME280;44177;43.356;27.672;2024-03-17T10:17:31;98481.69;;;21.30;37.04
58373;BME280;44177;43.356;27.672;2024-03-17T10:20:16;98499.50;;;20.87;37.88
58373;BME280;44177;43.356;27.672;2024-03-17T10:23:04;98499.59;;;21.22;37.94
58373;BME280;44177;43.356;27.672;2024-03-17T10:25:34;98456.44;;;20.19;38.00
58373;BME280;44177;43.356;27.672;2024-03-17T10:28:01;98482.88;;;20.31;39.46
58373;BME280;44177;43.356;27.672;2024-03-17T10:30:27;98498.16;;;20.54;38.42
58373;BME280;44177;43.356;27.672;2024-03-17T10:32:58;98504.19;;;20.34;38.53
58373;BME280;44177;43.356;27.672;2024-03-17T10:35:35;98491.19;;;20.27;40.21
58373;BME280;44177;43.356;27.672;2024-03-17T10:38:04;98493.53;;;20.32;38.50
58373;BME280;44177;43.356;27.672;2024-03-17T10:40:31;98491.56;;;20.29;39.00
58373;BME280;44177;43.356;27.672;2024-03-17T10:43:00;98487.78;;;19.98;38.11
58373;BME280;44177;43.356;27.672;2024-03-17T10:45:27;98480.84;;;20.35;38.73
58373;BME280;44177;43.356;27.672;2024-03-17T10:47:56;98476.81;;;21.41;34.00
58373;BME280;44177;43.356;27.672;2024-03-17T10:50:28;98469.16;;;21.14;36.17
58373;BME280;44177;43.356;27.672;2024-03-17T10:52:58;98470.38;;;20.61;34.03
58373;BME280;44177;43.356;27.672;2024-03-17T10:55:30;98464.81;;;21.13;33.04
58373;BME280;44177;43.356;27.672;2024-03-17T10:57:57;98462.63;;;21.32;32.65
58373;BME280;44177;43.356;27.672;2024-03-17T11:00:25;98468.59;;;20.89;33.25
58373;BME280;44177;43.356;27.672;2024-03-17T11:02:55;98463.81;;;20.93;32.64
58373;BME280;44177;43.356;27.672;2024-03-17T11:05:23;98422.84;;;20.62;33.72
58373;BME280;44177;43.356;27.672;2024-03-17T11:07:51;98449.81;;;19.95;34.66
58373;BME280;44177;43.356;27.672;2024-03-17T11:10:24;98432.84;;;19.89;34.86
58373;BME280;44177;43.356;27.672;2024-03-17T11:12:57;98455.38;;;20.58;33.67
58373;BME280;44177;43.356;27.672;2024-03-17T11:17:53;98442.50;;;20.82;33.40
58373;BME280;44177;43.356;27.672;2024-03-17T11:20:24;98431.47;;;21.17;32.97
58373;BME280;44177;43.356;27.672;2024-03-17T11:22:51;98435.06;;;21.18;31.76
58373;BME280;44177;43.356;27.672;2024-03-17T11:39:07;98415.31;;;21.46;32.14
58373;BME280;44177;43.356;27.672;2024-03-17T11:41:53;98411.72;;;21.50;30.44
58373;BME280;44177;43.356;27.672;2024-03-17T11:49:27;98406.00;;;21.64;30.82
58373;BME280;44177;43.356;27.672;2024-03-17T11:51:57;98397.53;;;22.02;31.39
58373;BME280;44177;43.356;27.672;2024-03-17T11:54:25;98402.16;;;21.85;32.55
58373;BME280;44177;43.356;27.672;2024-03-17T11:56:56;98392.63;;;22.41;29.44
58373;BME280;44177;43.356;27.672;2024-03-17T11:59:22;98391.06;;;22.13;31.82
58373;BME280;44177;43.356;27.672;2024-03-17T12:01:50;98400.97;;;22.14;32.16
58373;BME280;44177;43.356;27.672;2024-03-17T12:04:17;98398.72;;;22.29;30.84
58373;BME280;44177;43.356;27.672;2024-03-17T12:06:58;98363.31;;;21.51;32.57
58373;BME280;44177;43.356;27.672;2024-03-17T12:09:30;98385.50;;;22.13;32.07
58373;BME280;44177;43.356;27.672;2024-03-17T12:12:01;98398.53;;;22.16;32.50
58373;BME280;44177;43.356;27.672;2024-03-17T12:14:27;98363.03;;;22.27;31.71
58373;BME280;44177;43.356;27.672;2024-03-17T12:16:59;98385.59;;;22.05;31.00
58373;BME280;44177;43.356;27.672;2024-03-17T12:19:25;98378.56;;;21.35;31.17
58373;BME280;44177;43.356;27.672;2024-03-17T12:21:53;98377.91;;;21.24;32.00
58373;BME280;44177;43.356;27.672;2024-03-17T12:24:29;98368.00;;;20.88;32.54
58373;BME280;44177;43.356;27.672;2024-03-17T12:26:56;98362.75;;;21.32;33.69
58373;BME280;44177;43.356;27.672;2024-03-17T12:29:34;98379.81;;;21.65;32.62
58373;BME280;44177;43.356;27.672;2024-03-17T12:32:16;98372.75;;;21.26;33.23
58373;BME280;44177;43.356;27.672;2024-03-17T12:34:43;98357.34;;;21.52;31.81
58373;BME280;44177;43.356;27.672;2024-03-17T12:37:15;98373.38;;;21.37;32.37
58373;BME280;44177;43.356;27.672;2024-03-17T12:39:41;98365.31;;;20.81;35.29
58373;BME280;44177;43.356;27.672;2024-03-17T12:42:10;98367.41;;;21.42;32.75
58373;BME280;44177;43.356;27.672;2024-03-17T12:44:38;98362.22;;;21.75;32.92
58373;BME280;44177;43.356;27.672;2024-03-17T12:47:18;98360.53;;;21.51;31.99
58373;BME280;44177;43.356;27.672;2024-03-17T12:50:00;98359.34;;;21.83;31.18
58373;BME280;44177;43.356;27.672;2024-03-17T12:52:30;98353.41;;;21.19;31.26
58373;BME280;44177;43.356;27.672;2024-03-17T12:55:01;98357.56;;;20.99;32.40
58373;BME280;44177;43.356;27.672;2024-03-17T12:57:46;98343.03;;;21.85;31.33
58373;BME280;44177;43.356;27.672;2024-03-17T13:00:30;98317.84;;;22.23;30.90
58373;BME280;44177;43.356;27.672;2024-03-17T13:03:00;98307.16;;;21.98;31.11
58373;BME280;44177;43.356;27.672;2024-03-17T13:05:26;98345.22;;;21.73;31.23
58373;BME280;44177;43.356;27.672;2024-03-17T13:07:53;98346.69;;;21.82;31.89
58373;BME280;44177;43.356;27.672;2024-03-17T13:10:20;98337.47;;;20.50;31.80
58373;BME280;44177;43.356;27.672;2024-03-17T13:12:47;98341.50;;;19.85;32.09
58373;BME280;44177;43.356;27.672;2024-03-17T13:15:17;98333.75;;;20.22;31.58
58373;BME280;44177;43.356;27.672;2024-03-17T13:17:45;98330.88;;;20.78;31.86
58373;BME280;44177;43.356;27.672;2024-03-17T13:20:15;98323.56;;;20.95;30.96